.
WxDataArchive / Data Records for 2007-12-15
2007-12-14 December 2007 2007-12-16

Data Records for Saturday, 15 December 2007

Time	Temp	Chill	HIndex	Humid	Dewpt	 Wind 	HiWind	WindDir	Rain 	Barom 
-----	----	-----	------	-----	-----	------	------	-------	-----	----- 
00:00	28.8	28.8	28.8	69	19.9	3	6	112	0.00	30.338 
00:05	28.8	28.8	28.8	70	20.3	2	6	90	0.00	30.336 
00:10	28.8	28.8	28.8	70	20.3	2	5	112	0.00	30.333 
00:15	28.8	28.8	28.8	70	20.3	2	4	112	0.00	30.336 
00:20	28.8	28.8	28.8	70	20.3	3	6	90	0.00	30.334 
00:25	28.8	28.8	28.8	70	20.3	3	6	90	0.00	30.330 
00:30	28.7	28.7	28.7	71	20.5	3	7	112	0.00	30.331 
00:35	28.7	28.7	28.7	71	20.5	3	5	112	0.00	30.328 
00:40	28.7	28.7	28.7	72	20.8	2	6	112	0.00	30.322 
00:45	28.7	28.7	28.7	72	20.8	2	5	90	0.00	30.315 
00:50	28.7	28.7	28.7	73	21.2	2	5	90	0.00	30.313 
00:55	28.7	28.7	28.7	73	21.2	2	5	90	0.00	30.307 
01:00	28.5	28.5	28.5	74	21.3	2	9	112	0.00	30.300 
01:05	28.5	28.5	28.5	74	21.3	2	9	90	0.00	30.302 
01:10	28.5	28.5	28.5	74	21.3	2	7	112	0.00	30.302 
01:15	28.5	24.0	28.5	74	21.3	4	9	90	0.00	30.299 
01:20	28.5	24.0	28.5	75	21.6	4	7	90	0.00	30.299 
01:25	28.5	24.0	28.5	74	21.3	4	11	90	0.00	30.299 
01:30	28.5	24.0	28.5	74	21.3	4	9	90	0.00	30.297 
01:35	28.5	24.0	28.5	72	20.6	4	9	90	0.00	30.297 
01:40	28.5	28.5	28.5	72	20.6	3	7	112	0.00	30.293 
01:45	28.5	24.0	28.5	72	20.6	4	7	90	0.00	30.292 
01:50	28.5	28.5	28.5	72	20.6	3	9	112	0.00	30.291 
01:55	28.5	24.0	28.5	72	20.6	4	10	112	0.00	30.298 
02:00	28.7	28.7	28.7	72	20.8	3	7	112	0.00	30.295 
02:05	28.5	24.0	28.5	73	21.0	4	8	90	0.00	30.293 
02:10	28.5	28.5	28.5	73	21.0	3	9	90	0.00	30.293 
02:15	28.5	24.0	28.5	73	21.0	4	7	90	0.00	30.287 
02:20	28.5	28.5	28.5	73	21.0	3	7	90	0.00	30.287 
02:25	28.5	28.5	28.5	73	21.0	3	7	112	0.00	30.286 
02:30	28.5	28.5	28.5	73	21.0	3	6	112	0.00	30.287 
02:35	28.7	28.7	28.7	73	21.2	3	7	112	0.00	30.294 
02:40	28.7	24.3	28.7	73	21.2	4	13	90	0.00	30.288 
02:45	28.7	24.3	28.7	73	21.2	4	9	112	0.00	30.287 
02:50	28.7	24.3	28.7	73	21.2	4	9	112	0.00	30.285 
02:55	28.7	24.3	28.7	73	21.2	4	12	90	0.00	30.285 
03:00	28.7	28.7	28.7	73	21.2	3	7	112	0.00	30.295 
03:05	28.8	28.8	28.8	73	21.3	3	7	90	0.00	30.303 
03:10	28.8	24.4	28.8	72	20.9	4	10	90	0.00	30.314 
03:15	29.0	29.0	29.0	73	21.4	3	8	112	0.00	30.315 
03:20	29.0	24.6	29.0	73	21.4	4	10	90	0.00	30.309 
03:25	29.0	29.0	29.0	73	21.4	3	7	112	0.00	30.308 
03:30	28.8	28.8	28.8	74	21.6	2	5	90	0.00	30.312 
03:35	28.8	28.8	28.8	75	21.9	3	7	112	0.00	30.302 
03:40	28.7	28.7	28.7	76	22.1	3	9	112	0.00	30.301 
03:45	28.5	24.0	28.5	76	21.9	4	9	112	0.00	30.299 
03:50	28.5	23.0	28.5	77	22.2	5	11	90	0.00	30.293 
03:55	28.5	24.0	28.5	77	22.2	4	11	112	0.00	30.294 
04:00	28.5	28.5	28.5	77	22.2	3	9	112	0.00	30.289 
04:05	28.4	22.8	28.4	77	22.1	5	10	90	0.00	30.288 
04:10	28.4	28.4	28.4	77	22.1	3	9	112	0.00	30.287 
04:15	28.4	23.9	28.4	78	22.4	4	9	90	0.00	30.279 
04:20	28.4	22.8	28.4	78	22.4	5	15	112	0.00	30.272 
04:25	28.4	23.9	28.4	79	22.7	4	11	112	0.00	30.266 
04:30	28.2	22.6	28.2	79	22.5	5	13	112	0.00	30.263 
04:35	28.2	23.7	28.2	79	22.5	4	11	90	0.00	30.263 
04:40	28.2	28.2	28.2	80	22.8	3	7	112	0.00	30.270 
04:45	28.2	22.6	28.2	80	22.8	5	13	90	0.00	30.265 
04:50	28.2	23.7	28.2	80	22.8	4	9	112	0.00	30.259 
04:55	28.1	21.6	28.1	80	22.7	6	12	90	0.00	30.257 
05:00	28.1	23.6	28.1	80	22.7	4	14	112	0.00	30.258 
05:05	28.2	23.7	28.2	81	23.1	4	12	112	0.00	30.256 
05:10	28.2	28.2	28.2	80	22.8	3	7	112	0.00	30.255 
05:15	28.2	28.2	28.2	81	23.1	3	11	112	0.00	30.253 
05:20	28.1	23.6	28.1	81	23.0	4	10	90	0.00	30.255 
05:25	28.1	28.1	28.1	81	23.0	3	12	112	0.00	30.256 
05:30	28.1	28.1	28.1	81	23.0	3	9	112	0.00	30.258 
05:35	28.1	23.6	28.1	81	23.0	4	9	112	0.00	30.259 
05:40	28.1	22.5	28.1	81	23.0	5	11	112	0.00	30.263 
05:45	28.1	28.1	28.1	81	23.0	3	6	112	0.00	30.260 
05:50	28.2	28.2	28.2	81	23.1	3	9	112	0.00	30.261 
05:55	28.2	28.2	28.2	81	23.1	3	6	90	0.00	30.269 
06:00	28.2	28.2	28.2	81	23.1	2	7	112	0.00	30.270 
06:05	28.2	28.2	28.2	81	23.1	2	6	112	0.00	30.273 
06:10	28.2	28.2	28.2	81	23.1	3	6	112	0.00	30.274 
06:15	28.4	28.4	28.4	81	23.3	1	4	90	0.00	30.278 
06:20	28.4	28.4	28.4	81	23.3	1	3	112	0.00	30.286 
06:25	28.4	28.4	28.4	81	23.3	2	5	90	0.00	30.281 
06:30	28.4	28.4	28.4	81	23.3	2	6	90	0.00	30.277 
06:35	28.4	28.4	28.4	81	23.3	3	6	112	0.00	30.275 
06:40	28.4	28.4	28.4	81	23.3	2	6	112	0.00	30.273 
06:45	28.4	28.4	28.4	81	23.3	0	3	90	0.00	30.275 
06:50	28.4	28.4	28.4	81	23.3	1	4	112	0.00	30.285 
06:55	28.4	28.4	28.4	81	23.3	1	4	112	0.00	30.279 
07:00	28.4	28.4	28.4	82	23.6	1	3	112	0.00	30.277 
07:05	28.4	28.4	28.4	82	23.6	1	7	112	0.00	30.283 
07:10	28.4	28.4	28.4	82	23.6	1	3	112	0.00	30.285 
07:15	28.2	28.2	28.2	82	23.4	0	2	45	0.00	30.286 
07:20	28.2	28.2	28.2	82	23.4	1	2	45	0.00	30.286 
07:25	28.2	28.2	28.2	82	23.4	1	3	112	0.00	30.283 
07:30	28.2	28.2	28.2	83	23.7	2	7	112	0.00	30.277 
07:35	28.2	28.2	28.2	83	23.7	1	4	112	0.00	30.277 
07:40	28.2	28.2	28.2	83	23.7	1	4	112	0.00	30.272 
07:45	28.2	28.2	28.2	83	23.7	1	4	112	0.00	30.269 
07:50	28.2	28.2	28.2	83	23.7	2	8	112	0.00	30.264 
07:55	28.2	28.2	28.2	84	24.0	1	2	90	0.00	30.273 
08:00	28.2	28.2	28.2	84	24.0	2	5	112	0.00	30.273 
08:05	28.2	28.2	28.2	84	24.0	2	7	112	0.00	30.274 
08:10	28.2	28.2	28.2	84	24.0	1	3	112	0.00	30.264 
08:15	28.2	28.2	28.2	84	24.0	1	7	112	0.00	30.259 
08:20	28.2	28.2	28.2	84	24.0	3	7	112	0.00	30.258 
08:25	28.2	28.2	28.2	84	24.0	3	8	112	0.00	30.255 
08:30	28.4	28.4	28.4	84	24.2	2	6	90	0.00	30.250 
08:35	28.4	23.9	28.4	84	24.2	4	8	90	0.00	30.244 
08:40	28.4	28.4	28.4	84	24.2	3	8	112	0.00	30.238 
08:45	28.4	23.9	28.4	84	24.2	4	10	112	0.00	30.228 
08:50	28.4	22.8	28.4	84	24.2	5	10	90	0.00	30.227 
08:55	28.4	23.9	28.4	84	24.2	4	6	90	0.00	30.221 
09:00	28.5	28.5	28.5	84	24.3	3	8	112	0.00	30.213 
09:05	28.5	23.0	28.5	84	24.3	5	10	112	0.00	30.210 
09:10	28.5	24.0	28.5	84	24.3	4	9	112	0.00	30.196 
09:15	28.4	22.8	28.4	84	24.2	5	12	112	0.00	30.203 
09:20	28.4	23.9	28.4	85	24.5	4	10	112	0.00	30.198 
09:25	28.4	23.9	28.4	85	24.5	4	13	90	0.00	30.186 
09:30	28.2	23.7	28.2	85	24.3	4	11	112	0.00	30.190 
09:35	28.1	23.6	28.1	85	24.2	4	10	112	0.00	30.184 
09:40	28.1	28.1	28.1	85	24.2	3	12	90	0.00	30.179 
09:45	28.1	22.5	28.1	85	24.2	5	10	90	0.00	30.176 
09:50	28.2	21.7	28.2	85	24.3	6	12	90	0.00	30.164 
09:55	28.2	22.6	28.2	85	24.3	5	11	112	0.00	30.167 
10:00	28.4	22.8	28.4	85	24.5	5	12	112	0.00	30.169 
10:05	28.4	23.9	28.4	84	24.2	4	12	112	0.00	30.172 
10:10	28.5	24.0	28.5	84	24.3	4	12	112	0.00	30.169 
10:15	28.5	24.0	28.5	84	24.3	4	10	90	0.00	30.165 
10:20	28.7	24.3	28.7	84	24.5	4	10	90	0.00	30.163 
10:25	28.8	21.6	28.8	80	23.4	7	12	90	0.00	30.162 
10:30	29.1	22.0	29.1	78	23.1	7	14	90	0.00	30.160 
10:35	29.1	22.0	29.1	78	23.1	7	12	112	0.00	30.153 
10:40	29.1	22.0	29.1	80	23.7	7	17	90	0.00	30.149 
10:45	29.0	21.9	29.0	82	24.2	7	13	90	0.00	30.145 
10:50	28.7	20.8	28.7	83	24.2	8	17	90	0.00	30.146 
10:55	28.5	21.3	28.5	84	24.3	7	15	90	0.00	30.143 
11:00	28.7	23.2	28.7	84	24.5	5	12	112	0.00	30.134 
11:05	29.0	22.7	29.0	82	24.2	6	12	112	0.00	30.129 
11:10	29.0	21.2	29.0	81	23.9	8	18	90	0.00	30.121 
11:15	29.1	22.0	29.1	81	24.0	7	14	90	0.00	30.115 
11:20	29.0	22.7	29.0	82	24.2	6	12	90	0.00	30.111 
11:25	29.0	21.2	29.0	82	24.2	8	17	90	0.00	30.112 
11:30	29.1	24.7	29.1	83	24.6	4	11	112	0.00	30.108 
11:35	29.1	23.7	29.1	82	24.3	5	12	90	0.00	30.105 
11:40	29.3	25.0	29.3	82	24.5	4	9	90	0.00	30.103 
11:45	29.3	22.2	29.3	81	24.2	7	13	112	0.00	30.098 
11:50	29.4	22.4	29.4	80	24.0	7	12	112	0.00	30.095 
11:55	29.5	23.3	29.5	79	23.8	6	14	112	0.00	30.088 
12:00	29.5	24.1	29.5	79	23.8	5	14	112	0.00	30.085 
12:05	29.7	22.7	29.7	78	23.7	7	13	90	0.00	30.086 
12:10	29.7	22.7	29.7	77	23.4	7	15	90	0.00	30.082 
12:15	29.7	24.4	29.7	78	23.7	5	11	90	0.00	30.082 
12:20	29.7	22.7	29.7	78	23.7	7	16	90	0.00	30.081 
12:25	29.5	24.1	29.5	79	23.8	5	11	90	0.00	30.074 
12:30	29.5	24.1	29.5	80	24.1	5	11	90	0.00	30.067 
12:35	29.4	24.0	29.4	81	24.3	5	12	90	0.00	30.063 
12:40	29.3	23.0	29.3	82	24.5	6	12	112	0.00	30.054 
12:45	29.1	22.8	29.1	83	24.6	6	13	112	0.00	30.051 
12:50	29.1	23.7	29.1	84	24.9	5	11	90	0.00	30.049 
12:55	29.0	22.7	29.0	84	24.8	6	12	112	0.00	30.045 
13:00	29.0	24.6	29.0	85	25.1	4	10	90	0.00	30.050 
13:05	29.1	29.1	29.1	86	25.4	3	7	112	0.00	30.050 
13:10	29.0	23.6	29.0	86	25.3	5	12	90	0.00	30.049 
13:15	28.8	24.4	28.8	87	25.4	4	12	112	0.00	30.045 
13:20	28.8	24.4	28.8	88	25.7	4	10	112	0.00	30.045 
13:25	28.8	24.4	28.8	88	25.7	4	11	112	0.00	30.041 
13:30	28.7	23.2	28.7	88	25.6	5	11	90	0.00	30.036 
13:35	28.7	23.2	28.7	88	25.6	5	11	112	0.00	30.034 
13:40	28.7	24.3	28.7	89	25.9	4	10	112	0.00	30.034 
13:45	28.8	28.8	28.8	89	26.0	2	6	90	0.00	30.032 
13:50	28.7	28.7	28.7	89	25.9	3	7	112	0.00	30.028 
13:55	28.7	28.7	28.7	89	25.9	3	9	90	0.00	30.021 
14:00	28.5	23.0	28.5	89	25.7	5	12	112	0.00	30.019 
14:05	28.5	28.5	28.5	89	25.7	3	7	112	0.00	30.018 
14:10	28.5	24.0	28.5	90	25.9	4	9	90	0.00	30.014 
14:15	28.5	28.5	28.5	90	25.9	3	8	112	0.00	30.006 
14:20	28.5	24.0	28.5	90	25.9	4	10	90	0.00	30.001 
14:25	28.4	23.9	28.4	91	26.1	4	12	112	0.00	29.995 
14:30	28.4	23.9	28.4	91	26.1	4	13	112	0.00	29.990 
14:35	28.4	28.4	28.4	91	26.1	3	7	112	0.00	29.982 
14:40	28.4	23.9	28.4	91	26.1	4	11	112	0.00	29.973 
14:45	28.2	23.7	28.2	90	25.7	4	11	112	0.00	29.969 
14:50	28.2	28.2	28.2	90	25.7	3	9	112	0.00	29.959 
14:55	28.2	23.7	28.2	91	25.9	4	10	112	0.00	29.954 
15:00	28.2	28.2	28.2	91	25.9	3	7	90	0.00	29.953 
15:05	28.2	28.2	28.2	91	25.9	3	10	112	0.00	29.956 
15:10	28.2	23.7	28.2	91	25.9	4	10	112	0.00	29.944 
15:15	28.2	22.6	28.2	91	25.9	5	12	112	0.00	29.943 
15:20	28.1	23.6	28.1	91	25.8	4	9	112	0.00	29.938 
15:25	28.1	22.5	28.1	91	25.8	5	10	112	0.00	29.931 
15:30	28.2	28.2	28.2	91	25.9	3	9	90	0.00	29.931 
15:35	27.9	22.3	27.9	91	25.6	5	11	112	0.00	29.928 
15:40	27.9	22.3	27.9	91	25.6	5	12	112	0.00	29.924 
15:45	27.9	21.3	27.9	91	25.6	6	12	112	0.00	29.914 
15:50	27.9	23.3	27.9	91	25.6	4	12	90	0.00	29.915 
15:55	27.9	27.9	27.9	91	25.6	3	9	90	0.00	29.918 
16:00	27.9	23.3	27.9	91	25.6	4	9	112	0.00	29.912 
16:05	27.8	23.2	27.8	91	25.5	4	12	90	0.00	29.908 
16:10	27.8	23.2	27.8	91	25.5	4	9	90	0.00	29.910 
16:15	27.8	22.1	27.8	91	25.5	5	12	112	0.00	29.902 
16:20	27.6	20.2	27.6	90	25.1	7	13	112	0.00	29.901 
16:25	27.8	22.1	27.8	90	25.3	5	10	112	0.00	29.900 
16:30	27.8	21.2	27.8	90	25.3	6	14	90	0.00	29.894 
16:35	27.8	21.2	27.8	90	25.3	6	12	112	0.00	29.885 
16:40	27.8	22.1	27.8	91	25.5	5	10	90	0.00	29.882 
16:45	27.8	21.2	27.8	91	25.5	6	15	112	0.00	29.877 
16:50	27.8	22.1	27.8	91	25.5	5	9	112	0.00	29.870 
16:55	27.8	22.1	27.8	91	25.5	5	13	90	0.00	29.863 
17:00	27.6	21.9	27.6	91	25.3	5	13	112	0.00	29.853 
17:05	27.6	21.0	27.6	91	25.3	6	14	90	0.00	29.853 
17:10	27.6	21.9	27.6	91	25.3	5	12	90	0.00	29.840 
17:15	27.6	20.2	27.6	90	25.1	7	17	90	0.00	29.820 
17:20	27.6	20.2	27.6	90	25.1	7	16	112	0.00	29.814 
17:25	27.6	20.2	27.6	90	25.1	7	15	90	0.00	29.816 
17:30	27.6	21.9	27.6	90	25.1	5	13	112	0.00	29.829 
17:35	27.6	27.6	27.6	90	25.1	3	7	90	0.00	29.831 
17:40	27.6	23.0	27.6	90	25.1	4	13	90	0.00	29.831 
17:45	27.6	21.9	27.6	89	24.8	5	10	112	0.00	29.830 
17:50	27.6	27.6	27.6	89	24.8	3	13	90	0.00	29.830 
17:55	27.6	23.0	27.6	89	24.8	4	12	112	0.00	29.828 
18:00	27.6	21.9	27.6	89	24.8	5	11	112	0.00	29.826 
18:05	27.6	27.6	27.6	89	24.8	3	10	90	0.00	29.821 
18:10	27.6	27.6	27.6	89	24.8	2	5	112	0.00	29.823 
18:15	27.6	27.6	27.6	89	24.8	3	11	90	0.00	29.825 
18:20	27.6	27.6	27.6	89	24.8	3	7	90	0.00	29.816 
18:25	27.6	27.6	27.6	89	24.8	2	7	90	0.00	29.813 
18:30	27.6	27.6	27.6	89	24.8	2	7	90	0.00	29.808 
18:35	27.6	27.6	27.6	89	24.8	2	10	90	0.00	29.800 
18:40	27.6	27.6	27.6	89	24.8	2	5	90	0.00	29.805 
18:45	27.6	27.6	27.6	89	24.8	2	5	45	0.00	29.801 
18:50	27.6	27.6	27.6	89	24.8	3	10	112	0.00	29.799 
18:55	27.6	27.6	27.6	90	25.1	2	9	112	0.00	29.797 
19:00	27.6	27.6	27.6	90	25.1	2	10	90	0.00	29.797 
19:05	27.6	27.6	27.6	90	25.1	3	7	112	0.00	29.799 
19:10	27.6	27.6	27.6	90	25.1	2	5	112	0.00	29.799 
19:15	27.6	27.6	27.6	90	25.1	1	4	90	0.00	29.803 
19:20	27.8	27.8	27.8	90	25.3	1	2	90	0.00	29.801 
19:25	27.8	27.8	27.8	90	25.3	2	4	68	0.00	29.797 
19:30	27.8	27.8	27.8	90	25.3	2	6	68	0.00	29.788 
19:35	27.8	27.8	27.8	90	25.3	2	7	45	0.00	29.791 
19:40	27.8	27.8	27.8	90	25.3	2	4	22	0.00	29.807 
19:45	27.9	27.9	27.9	90	25.4	2	4	68	0.00	29.784 
19:50	27.9	27.9	27.9	90	25.4	1	4	45	0.00	29.798 
19:55	27.9	27.9	27.9	90	25.4	2	5	22	0.00	29.788 
20:00	27.9	27.9	27.9	91	25.6	2	5	112	0.00	29.784 
20:05	27.9	27.9	27.9	91	25.6	1	4	22	0.00	29.785 
20:10	27.9	27.9	27.9	91	25.6	2	6	45	0.00	29.779 
20:15	27.9	27.9	27.9	91	25.6	2	5	112	0.00	29.777 
20:20	27.9	27.9	27.9	92	25.9	2	5	112	0.00	29.769 
20:25	27.9	27.9	27.9	92	25.9	1	5	45	0.00	29.768 
20:30	28.1	28.1	28.1	92	26.1	1	6	112	0.00	29.780 
20:35	28.1	28.1	28.1	92	26.1	2	9	112	0.00	29.760 
20:40	28.1	28.1	28.1	92	26.1	2	5	112	0.00	29.740 
20:45	28.1	28.1	28.1	92	26.1	2	5	90	0.00	29.736 
20:50	28.1	28.1	28.1	92	26.1	2	5	112	0.00	29.742 
20:55	28.2	28.2	28.2	92	26.2	2	4	112	0.00	29.747 
21:00	28.2	28.2	28.2	93	26.4	2	6	22	0.00	29.745 
21:05	28.4	28.4	28.4	93	26.6	2	6	45	0.00	29.739 
21:10	28.4	28.4	28.4	93	26.6	2	9	45	0.00	29.737 
21:15	28.4	28.4	28.4	92	26.4	2	7	90	0.00	29.734 
21:20	28.5	28.5	28.5	92	26.5	3	10	112	0.00	29.721 
21:25	28.5	24.0	28.5	92	26.5	4	12	112	0.00	29.721 
21:30	28.7	28.7	28.7	92	26.7	3	10	112	0.00	29.719 
21:35	28.7	28.7	28.7	92	26.7	2	10	90	0.00	29.707 
21:40	28.8	28.8	28.8	92	26.8	2	9	112	0.00	29.697 
21:45	28.8	28.8	28.8	93	27.0	3	11	112	0.00	29.690 
21:50	29.0	29.0	29.0	93	27.2	2	6	112	0.00	29.689 
21:55	29.0	29.0	29.0	93	27.2	3	10	90	0.00	29.681 
22:00	29.1	29.1	29.1	93	27.3	3	7	112	0.00	29.681 
22:05	29.3	25.0	29.3	93	27.5	4	15	112	0.00	29.685 
22:10	29.3	25.0	29.3	92	27.3	4	11	112	0.00	29.674 
22:15	29.3	25.0	29.3	92	27.3	4	13	90	0.00	29.670 
22:20	29.4	25.1	29.4	92	27.4	4	9	90	0.00	29.657 
22:25	29.4	25.1	29.4	92	27.4	4	11	90	0.00	29.653 
22:30	29.4	25.1	29.4	92	27.4	4	13	90	0.00	29.644 
22:35	29.4	29.4	29.4	92	27.4	2	10	90	0.00	29.640 
22:40	29.4	29.4	29.4	92	27.4	2	7	112	0.00	29.641 
22:45	29.3	25.0	29.3	92	27.3	4	14	45	0.00	29.636 
22:50	29.1	29.1	29.1	92	27.1	2	6	45	0.00	29.626 
22:55	29.0	29.0	29.0	92	27.0	3	9	90	0.00	29.629 
23:00	29.0	29.0	29.0	92	27.0	2	6	45	0.00	29.635 
23:05	28.8	28.8	28.8	92	26.8	3	9	112	0.00	29.625 
23:10	28.7	28.7	28.7	92	26.7	2	6	112	0.00	29.623 
23:15	28.5	28.5	28.5	92	26.5	3	12	112	0.00	29.608 
23:20	28.5	28.5	28.5	92	26.5	3	10	68	0.00	29.609 
23:25	28.4	28.4	28.4	92	26.4	3	16	90	0.00	29.603 
23:30	28.2	28.2	28.2	92	26.2	3	7	45	0.00	29.593 
23:35	28.1	28.1	28.1	92	26.1	3	11	45	0.00	29.584 
23:40	27.9	27.9	27.9	92	25.9	3	7	112	0.00	29.574 
23:45	27.8	27.8	27.8	92	25.8	3	7	90	0.00	29.570 
23:50	27.8	27.8	27.8	92	25.8	2	7	112	0.00	29.575 
23:55	27.6	27.6	27.6	92	25.6	2	7	22	0.00	29.572 

CoCoRaHS
IN-AL-39
A2 Web Hosting
Creative Commons License
GoDaddy
Look for:

loaded 2017-10-19 14:35:29 • last modified 2010-11-18 10:43:29
Privacy PolicyDisclaimer
• wx.awcolley.com is powered by PmWiki v.2002016 •
• all content (unless otherwise noted) © 2017 A W Colley